Airfield :
LOGIN :

Register | Disclaimer

   EN    FR    IT 

 










Legend :    VFR   Marginal VFR   IFR   Intensive IFR   Very Intensive IFR
Visi :
Ceiling :
>= 8 km
>= 3000ft
5 to 8 km
1000 to 3000 ft
1500m to 5 km
500 to 1000 ft
800 to 1500m
200 to 500 ft
< 800m
< 200 ft
Symbols :   Thunderstorms  Fog  Heavy snow  Heavy precipitations  Wind > 20 kt
SIGMETs :     Misc.  Thunderstorms  Icing  Turbulence  Mountain Waves  Volcanic Ashes







- Airport Elevation : 72 ft
- IATA code : UDE


EHVK - Volkel Airbase

CURRENT METAR :
  • 220025Z AUTO 08004KT 9999 SCT069 BKN076 BKN083 17/13 Q1010 BLU

EXPIRED METARs :
  • 212355Z AUTO 09005KT 9999 FEW070 OVC210 18/13 Q1010 BLU
  • 212325Z AUTO 08006KT 9999 OVC210 17/12 Q1010 BLU
  • 212255Z AUTO 09004KT 060V130 9999 OVC190 18/12 Q1010 BLU
  • 212225Z AUTO 07005KT 9999 FEW070 18/12 Q1010 BLU
  • 212155Z AUTO 06005KT 9999 SCT067 BKN081 17/12 Q1010 BLU

TAF TAF EHVK
Valid from the 21 at 21:00 until the 22 at 09:00 UTC


212013Z 2121/2209 06006KT CAVOK
PROB30
TEMPO 2201/2204 SCT050CB BKN070
No reported NOTAMs for that airfield.



MET'MAP, your aeronautical weather chart ! - Copyright ORBIFLY December 2007 - Disclaimer

ORBIFLY MET'MAP TEAM :

Programming & Development : Alexandra Zaïnal
Concept & Development : Baudouin d'Aumeries
Co-Development & Prog : Marc-Olivier Méhu
Technical & hardware support : Manuel Goepfert

Contact : metmap@orbifly.com




SOURCES & CREDITS :

   NOAA